createdAt,value
2019-05-10T00:04:54.252Z,94413.80
2019-05-10T00:09:55.491Z,94418.37
2019-05-10T00:14:56.810Z,94427.63
2019-05-10T00:19:58.101Z,94424.77
2019-05-10T00:25:04.349Z,94430.57
2019-05-10T00:30:02.334Z,94429.97
2019-05-10T00:35:03.745Z,94433.51
2019-05-10T00:40:05.081Z,94448.47
2019-05-10T00:45:06.386Z,94440.39
2019-05-10T00:50:07.726Z,94455.91
2019-05-10T00:55:18.426Z,94455.90
2019-05-10T01:00:10.356Z,94453.76
2019-05-10T01:05:11.747Z,94465.44
2019-05-10T01:10:13.058Z,94478.06
2019-05-10T01:15:14.373Z,94473.45
2019-05-10T01:20:15.681Z,94469.27
2019-05-10T01:25:17.035Z,94470.14
2019-05-10T01:30:18.364Z,94472.48
2019-05-10T01:35:19.676Z,94470.91
2019-05-10T01:40:20.982Z,94485.02
2019-05-10T01:45:22.283Z,94487.53
2019-05-10T01:50:23.596Z,94485.21
2019-05-10T01:55:24.880Z,94488.11
2019-05-10T02:00:26.206Z,94492.90
2019-05-10T02:05:27.596Z,94494.52
2019-05-10T02:10:28.953Z,94511.21
2019-05-10T02:15:30.257Z,94513.13
2019-05-10T02:20:31.540Z,94510.22
2019-05-10T02:25:32.852Z,94517.59
2019-05-10T02:30:34.211Z,94522.61
2019-05-10T02:35:35.590Z,94535.58
2019-05-10T02:40:36.881Z,94532.55
2019-05-10T02:45:38.216Z,94541.27
2019-05-10T02:50:39.499Z,94546.56
2019-05-10T02:55:40.850Z,94541.09
2019-05-10T03:00:42.180Z,94540.11
2019-05-10T03:05:48.150Z,94531.38
2019-05-10T03:10:50.762Z,94534.69
2019-05-10T03:15:52.080Z,94536.20
2019-05-10T03:20:53.405Z,94535.05
2019-05-10T03:25:54.750Z,94530.62
2019-05-10T03:30:56.102Z,94533.36
2019-05-10T03:35:57.507Z,94525.09
2019-05-10T03:40:58.813Z,94526.24
2019-05-10T03:46:00.888Z,94519.22
2019-05-10T03:51:02.306Z,94538.10
2019-05-10T03:56:03.666Z,94539.44
2019-05-10T04:01:05.048Z,94547.73
2019-05-10T04:06:06.487Z,94555.76
2019-05-10T04:11:07.800Z,94564.40
2019-05-10T04:16:09.095Z,94556.30
2019-05-10T04:21:10.569Z,94568.62
2019-05-10T04:26:11.918Z,94573.83
2019-05-10T04:31:13.223Z,94575.84
2019-05-10T04:36:14.603Z,94571.39
2019-05-10T04:41:15.950Z,94575.81
2019-05-10T04:46:17.273Z,94581.67
2019-05-10T04:51:18.596Z,94581.48
2019-05-10T04:56:19.915Z,94592.15
2019-05-10T05:01:21.243Z,94596.44
2019-05-10T05:06:22.660Z,94598.00
2019-05-10T05:11:23.973Z,94595.46
2019-05-10T05:16:25.288Z,94600.94
2019-05-10T05:21:26.605Z,94605.48
2019-05-10T05:26:28.657Z,94614.09
2019-05-10T05:31:30.026Z,94618.46
2019-05-10T05:36:31.341Z,94617.65
2019-05-10T05:41:32.708Z,94622.91
2019-05-10T05:46:34.005Z,94638.73
2019-05-10T05:51:36.065Z,94641.51
2019-05-10T05:56:37.480Z,94640.40
2019-05-10T06:01:38.826Z,94650.34
2019-05-10T06:06:40.381Z,94652.97
2019-05-10T06:11:41.724Z,94657.77
2019-05-10T06:16:45.059Z,94665.27
2019-05-10T06:21:44.393Z,94669.14
2019-05-10T06:26:45.707Z,94665.44
2019-05-10T06:31:47.016Z,94674.48
2019-05-10T06:36:48.336Z,94684.97
2019-05-10T06:41:55.599Z,94685.64
2019-05-10T06:46:50.973Z,94692.19
2019-05-10T06:51:52.291Z,94698.44
2019-05-10T06:56:54.334Z,94699.72
2019-05-10T07:01:56.452Z,94708.03
2019-05-10T07:06:58.525Z,94705.09
2019-05-10T07:11:59.859Z,94715.13
2019-05-10T07:17:02.658Z,94705.83
2019-05-10T07:22:02.639Z,94721.46
2019-05-10T07:27:05.843Z,94724.72
2019-05-10T07:32:06.082Z,94723.45
2019-05-10T07:37:08.229Z,94732.75
2019-05-10T07:42:09.538Z,94733.97
2019-05-10T07:47:10.845Z,94740.52
2019-05-10T07:52:12.131Z,94743.62
2019-05-10T07:57:13.425Z,94744.14
2019-05-10T08:02:14.982Z,94756.77
2019-05-10T08:07:18.446Z,94751.98
2019-05-10T08:12:19.511Z,94753.67
2019-05-10T08:17:19.564Z,94756.30
2019-05-10T08:22:22.938Z,94747.95
2019-05-10T08:27:23.015Z,94748.69
2019-05-10T08:32:25.520Z,94748.23
2019-05-10T08:37:33.120Z,94742.00
2019-05-10T08:42:43.813Z,94738.91
2019-05-10T08:47:28.039Z,94746.41
2019-05-10T08:52:31.665Z,94750.04
2019-05-10T08:57:34.904Z,94750.17
2019-05-10T09:02:32.893Z,94744.02
2019-05-10T09:07:36.970Z,94750.17
2019-05-10T09:12:35.370Z,94750.01
2019-05-10T09:17:36.684Z,94753.44
2019-05-10T09:22:38.695Z,94759.85
2019-05-10T09:27:39.296Z,94748.77
2019-05-10T09:32:43.508Z,94760.17
2019-05-10T09:37:42.671Z,94749.05
2019-05-10T09:42:43.989Z,94762.40
2019-05-10T09:47:45.378Z,94764.38
2019-05-10T09:52:47.493Z,94772.80
2019-05-10T09:57:48.903Z,94761.98
2019-05-10T10:02:56.216Z,94766.86
2019-05-10T10:07:51.576Z,94765.52
2019-05-10T10:12:58.303Z,94763.55
2019-05-10T10:17:54.202Z,94764.19
2019-05-10T10:22:55.521Z,94782.63
2019-05-10T10:27:57.450Z,94794.19
2019-05-10T10:32:58.233Z,94782.31
2019-05-10T10:38:02.969Z,94777.85
2019-05-10T10:43:00.992Z,94774.91
2019-05-10T10:48:08.549Z,94791.62
2019-05-10T10:53:04.433Z,94791.37
2019-05-10T10:58:07.357Z,94792.27
2019-05-10T11:03:07.878Z,94791.84
2019-05-10T11:08:11.180Z,94811.06
2019-05-10T11:13:18.580Z,94819.78
2019-05-10T11:18:12.731Z,94811.31
2019-05-10T11:23:16.247Z,94810.95
2019-05-10T11:28:15.434Z,94822.62
2019-05-10T11:33:27.223Z,94826.20
2019-05-10T11:38:18.180Z,94818.29
2019-05-10T11:43:23.954Z,94822.22
2019-05-10T11:48:21.604Z,94823.27
2019-05-10T11:53:23.995Z,94812.18
2019-05-10T11:58:23.957Z,94826.81
2019-05-10T12:03:25.049Z,94832.34
2019-05-10T12:08:26.436Z,94835.34
2019-05-10T12:13:27.781Z,94844.46
2019-05-10T12:18:32.475Z,94839.52
2019-05-10T12:23:31.662Z,94836.08
2019-05-10T12:28:35.483Z,94857.92
2019-05-10T12:33:33.068Z,94847.31
2019-05-10T12:38:35.927Z,94843.59
2019-05-10T12:43:37.213Z,94845.89
2019-05-10T12:48:38.539Z,94862.78
2019-05-10T12:53:44.466Z,94868.78
2019-05-10T12:58:41.253Z,94868.39
2019-05-10T13:03:42.584Z,94863.79
2019-05-10T13:08:44.645Z,94865.77
2019-05-10T13:13:45.994Z,94854.26
2019-05-10T13:18:51.725Z,94851.57
2019-05-10T13:23:53.186Z,94843.58
2019-05-10T13:28:50.711Z,94835.28
2019-05-10T13:33:52.088Z,94832.44
2019-05-10T13:38:54.225Z,94819.81
2019-05-10T13:43:59.031Z,94814.76
2019-05-10T13:48:56.848Z,94811.36
2019-05-10T13:53:59.160Z,94810.98
2019-05-10T13:59:13.693Z,94820.86
2019-05-10T14:04:03.408Z,94804.20
2019-05-10T14:09:02.229Z,94818.87
2019-05-10T14:14:03.537Z,94816.40
2019-05-10T14:19:04.823Z,94809.42
2019-05-10T14:24:09.033Z,94800.70
2019-05-10T14:29:11.068Z,94815.59
2019-05-10T14:34:15.212Z,94792.27
2019-05-10T14:39:11.034Z,94792.88
2019-05-10T14:44:12.421Z,94814.37
2019-05-10T14:49:14.284Z,94825.53
2019-05-10T14:54:15.752Z,94814.02
2019-05-10T14:59:17.061Z,94797.73
2019-05-10T15:04:43.811Z,94805.95
2019-05-10T15:09:23.959Z,94801.45
2019-05-10T15:14:21.363Z,94800.88
2019-05-10T15:19:25.890Z,94811.59
2019-05-10T15:24:23.967Z,94821.03
2019-05-10T15:29:25.262Z,94823.83
2019-05-10T15:34:26.588Z,94826.92
2019-05-10T15:39:28.745Z,94830.19
2019-05-10T15:44:31.513Z,94847.45
2019-05-10T15:49:30.722Z,94856.95
2019-05-10T15:54:32.068Z,94828.55
2019-05-10T15:59:33.448Z,94840.30
2019-05-10T16:04:34.773Z,94839.50
2019-05-10T16:09:36.862Z,94831.05
2019-05-10T16:14:39.341Z,94818.34
2019-05-10T16:19:39.514Z,94816.50
2019-05-10T16:24:40.844Z,94811.05
2019-05-10T16:29:42.887Z,94821.70
2019-05-10T16:34:44.203Z,94820.67
2019-05-10T16:39:45.582Z,94818.65
2019-05-10T16:44:46.897Z,94830.93
2019-05-10T16:49:53.193Z,94824.92
2019-05-10T16:54:49.509Z,94835.20
2019-05-10T16:59:50.820Z,94831.89
2019-05-10T17:04:52.131Z,94835.91
2019-05-10T17:09:54.703Z,94833.45
2019-05-10T17:14:56.314Z,94831.70
2019-05-10T17:19:58.746Z,94834.91
2019-05-10T17:25:03.449Z,94833.09
2019-05-10T17:29:59.706Z,94823.60
2019-05-10T17:35:04.894Z,94820.88
2019-05-10T17:40:04.645Z,94825.30
2019-05-10T17:45:04.470Z,94820.67
2019-05-10T17:50:05.127Z,94808.78
2019-05-10T17:55:11.061Z,94810.37
2019-05-10T18:00:07.920Z,94816.71
2019-05-10T18:05:09.245Z,94817.44
2019-05-10T18:10:10.654Z,94813.36
2019-05-10T18:15:11.920Z,94812.91
2019-05-10T18:20:13.266Z,94813.48
2019-05-10T18:25:20.420Z,94823.23
2019-05-10T18:30:16.000Z,94858.69
2019-05-10T18:35:17.389Z,94854.50
2019-05-10T18:40:19.227Z,94857.88
2019-05-10T18:45:23.438Z,94862.30
2019-05-10T18:50:23.694Z,94869.89
2019-05-10T18:55:25.890Z,94868.50
2019-05-10T19:00:27.194Z,94865.88
2019-05-10T19:05:31.433Z,94866.59
2019-05-10T19:10:29.857Z,94869.39
2019-05-10T19:15:31.203Z,94875.58
2019-05-10T19:20:32.609Z,94871.47
2019-05-10T19:25:37.344Z,94882.13
2019-05-10T19:30:36.171Z,94882.55
2019-05-10T19:35:37.921Z,94882.55
2019-05-10T19:40:39.001Z,94886.17
2019-05-10T19:45:40.301Z,94884.51
2019-05-10T19:50:41.622Z,94886.66
2019-05-10T19:55:42.937Z,94882.14
2019-05-10T20:00:45.005Z,94880.73
2019-05-10T20:05:46.305Z,94883.28
2019-05-10T20:10:48.366Z,94876.43
2019-05-10T20:15:49.717Z,94878.05
2019-05-10T20:20:51.026Z,94890.31
2019-05-10T20:25:52.309Z,94881.82
2019-05-10T20:30:53.596Z,94873.59
2019-05-10T20:35:54.917Z,94877.75
2019-05-10T20:40:56.305Z,94856.25
2019-05-10T20:45:57.589Z,94860.86
2019-05-10T20:50:58.926Z,94848.91
2019-05-10T20:56:00.460Z,94836.79
2019-05-10T21:01:02.571Z,94842.08
2019-05-10T21:06:03.930Z,94824.31
2019-05-10T21:11:05.247Z,94825.14
2019-05-10T21:16:06.556Z,94837.39
2019-05-10T21:21:07.853Z,94841.76
2019-05-10T21:26:09.182Z,94840.37
2019-05-10T21:31:10.516Z,94835.63
2019-05-10T21:36:11.797Z,94831.16
2019-05-10T21:41:13.914Z,94835.88
2019-05-10T21:46:15.228Z,94835.06
2019-05-10T21:51:17.279Z,94830.75
2019-05-10T21:56:18.570Z,94821.65
2019-05-10T22:01:21.862Z,94823.00
2019-05-10T22:06:29.448Z,94834.66
2019-05-10T22:11:30.775Z,94829.91
2019-05-10T22:16:32.065Z,94839.39
2019-05-10T22:21:33.375Z,94825.06
2019-05-10T22:26:34.674Z,94824.79
2019-05-10T22:31:35.982Z,94825.80
2019-05-10T22:36:37.380Z,94813.00
2019-05-10T22:41:39.538Z,94816.47
2019-05-10T22:46:40.928Z,94813.39
2019-05-10T22:51:43.021Z,94810.09
2019-05-10T22:56:44.357Z,94803.77
2019-05-10T23:01:45.698Z,94800.09
2019-05-10T23:06:47.028Z,94802.34
2019-05-10T23:11:48.428Z,94800.34
2019-05-10T23:16:49.742Z,94817.56
2019-05-10T23:21:51.076Z,94818.32
2019-05-10T23:26:52.391Z,94820.92
2019-05-10T23:31:53.666Z,94834.08
2019-05-10T23:36:54.941Z,94834.94
2019-05-10T23:41:56.266Z,94817.81
2019-05-10T23:46:57.569Z,94806.52
2019-05-10T23:51:58.972Z,94812.13
2019-05-10T23:57:00.285Z,94806.97
